Time;durP1;ratioP1;P1;durP2;ratioP2;P2;SDS_P1;SDS_P2;PMS_P1;PMS_P2;Temp;Humidity;BMP_temperature;BMP_pressure;BME280_temperature;BME280_humidity;BME280_pressure;Samples;Min_cycle;Max_cycle;Signal;HPM_P1;HPM_P2
2021/04/18 00:00:19;;;;;;;;;21.30;18.50;;;;;10.88;60.76;100850.69;485014;112;382528;-75
2021/04/18 00:01:23;;;;;;;;;27.30;24.00;;;;;10.82;60.19;100855.60;484975;112;384279;-75
2021/04/18 00:02:27;;;;;;;;;25.70;21.30;;;;;10.82;60.19;100855.60;485537;112;383641;-76
2021/04/18 00:03:31;;;;;;;;;22.40;20.00;;;;;10.79;60.05;100855.83;485598;112;382949;-74
2021/04/18 00:04:35;;;;;;;;;25.80;23.90;;;;;10.75;61.59;100863.20;480664;112;384796;-77
2021/04/18 00:05:39;;;;;;;;;29.40;24.40;;;;;10.75;61.59;100863.20;479628;114;387456;-78
2021/04/18 00:06:44;;;;;;;;;24.30;21.10;;;;;10.79;60.75;100861.14;479494;114;383369;-77
2021/04/18 00:07:47;;;;;;;;;26.50;22.60;;;;;10.79;60.75;100861.14;479730;114;385130;-76
2021/04/18 00:08:51;;;;;;;;;27.80;24.70;;;;;10.81;60.50;100856.58;479707;114;390639;-79
2021/04/18 00:09:55;;;;;;;;;28.80;26.40;;;;;10.81;60.71;100859.24;479265;114;384803;-76
2021/04/18 00:10:59;;;;;;;;;25.60;23.10;;;;;10.81;60.71;100859.24;479535;114;385514;-77
2021/04/18 00:12:04;;;;;;;;;26.80;23.70;;;;;10.82;60.25;100850.28;479667;114;390146;-78
2021/04/18 00:13:08;;;;;;;;;24.40;21.90;;;;;10.84;59.84;100853.70;479022;114;384225;-78
2021/04/18 00:14:13;;;;;;;;;26.30;22.70;;;;;10.84;60.65;100859.88;479530;114;384011;-76
2021/04/18 00:15:17;;;;;;;;;25.10;21.90;;;;;10.84;60.65;100859.88;479010;114;384068;-77
2021/04/18 00:16:21;;;;;;;;;21.20;19.40;;;;;10.83;60.56;100858.16;470790;115;382551;-78
2021/04/18 00:17:25;;;;;;;;;16.70;13.80;;;;;10.83;60.14;100854.65;473493;115;381413;-76
2021/04/18 00:18:29;;;;;;;;;20.00;16.90;;;;;10.83;60.14;100854.65;480826;113;383682;-75
2021/04/18 00:19:34;;;;;;;;;18.80;17.60;;;;;10.82;60.40;100852.94;479816;114;383038;-74
2021/04/18 00:20:40;;;;;;;;;21.60;18.90;;;;;10.83;60.20;100854.65;479158;114;383453;-72
2021/04/18 00:21:44;;;;;;;;;17.60;17.10;;;;;10.83;60.20;100854.65;479797;114;382093;-71
2021/04/18 00:22:48;;;;;;;;;18.20;16.10;;;;;10.81;60.02;100854.78;479584;114;381918;-71
2021/04/18 00:23:52;;;;;;;;;16.50;14.60;;;;;10.81;60.02;100854.78;479914;114;381598;-72
2021/04/18 00:24:56;;;;;;;;;17.00;11.80;;;;;10.82;60.09;100859.12;479878;114;379117;-73
2021/04/18 00:26:00;;;;;;;;;11.50;11.50;;;;;10.82;60.09;100859.12;480070;114;379643;-70
2021/04/18 00:27:06;;;;;;;;;12.80;10.80;;;;;10.84;59.63;100864.34;479882;114;378993;-72
2021/04/18 00:28:10;;;;;;;;;13.50;10.50;;;;;10.84;59.63;100864.34;479418;114;377565;-72
2021/04/18 00:29:13;;;;;;;;;15.10;14.40;;;;;10.85;59.05;100866.05;479983;114;379977;-72
2021/04/18 00:30:21;;;;;;;;;13.90;12.10;;;;;10.85;59.05;100866.05;479032;114;378443;-72
2021/04/18 00:31:24;;;;;;;;;15.50;12.60;;;;;10.84;59.80;100862.53;479274;114;379568;-72
2021/04/18 00:32:28;;;;;;;;;11.90;9.80;;;;;10.85;60.04;100860.73;479833;114;383492;-72
2021/04/18 00:33:32;;;;;;;;;11.80;11.20;;;;;10.83;59.67;100862.63;479921;114;378717;-75
2021/04/18 00:34:36;;;;;;;;;11.70;8.90;;;;;10.83;59.67;100860.83;479970;114;376716;-74
2021/04/18 00:35:40;;;;;;;;;11.70;9.60;;;;;10.87;59.76;100856.99;479939;114;377758;-73
2021/04/18 00:36:45;;;;;;;;;15.20;11.80;;;;;10.90;59.91;100855.91;479759;114;379483;-73
2021/04/18 00:37:49;;;;;;;;;15.10;12.00;;;;;10.87;58.90;100856.99;479873;114;379177;-73
2021/04/18 00:38:53;;;;;;;;;4.90;3.80;;;;;10.87;58.90;100856.99;479946;114;379786;-70
2021/04/18 00:39:57;;;;;;;;;12.80;10.80;;;;;10.82;58.94;100861.78;479865;114;379059;-70
2021/04/18 00:41:00;;;;;;;;;17.60;12.90;;;;;10.77;59.18;100853.29;479886;114;379312;-70
2021/04/18 00:42:05;;;;;;;;;19.50;18.20;;;;;10.75;59.37;100862.34;479843;114;382509;-69
2021/04/18 00:43:10;;;;;;;;;17.60;16.70;;;;;10.72;59.48;100859.91;479484;114;382174;-70
2021/04/18 00:44:14;;;;;;;;;20.30;17.50;;;;;10.70;59.53;100861.81;479512;114;381950;-71
2021/04/18 00:45:19;;;;;;;;;22.90;20.40;;;;;10.63;59.51;100854.27;479510;114;383237;-71
2021/04/18 00:46:23;;;;;;;;;18.20;17.40;;;;;10.63;59.51;100854.27;479304;114;381585;-71
2021/04/18 00:47:28;;;;;;;;;17.70;16.70;;;;;10.58;59.75;100852.91;479813;114;382515;-71
2021/04/18 00:48:32;;;;;;;;;21.30;19.20;;;;;10.58;59.75;100852.91;479458;114;388935;-71
2021/04/18 00:49:36;;;;;;;;;19.60;18.60;;;;;10.58;60.46;100855.57;479766;114;382346;-70
2021/04/18 00:50:41;;;;;;;;;22.70;17.10;;;;;10.58;60.46;100855.57;479283;114;382822;-70
2021/04/18 00:51:45;;;;;;;;;20.60;18.30;;;;;10.61;60.18;100856.20;479762;114;382336;-72
2021/04/18 00:52:49;;;;;;;;;18.00;16.10;;;;;10.61;60.04;100853.55;479796;114;382649;-73
2021/04/18 00:53:53;;;;;;;;;20.40;17.50;;;;;10.61;60.04;100853.55;479783;114;381915;-72
2021/04/18 00:54:57;;;;;;;;;20.70;19.20;;;;;10.65;59.77;100853.33;479808;114;382254;-72
2021/04/18 00:56:01;;;;;;;;;18.60;17.80;;;;;10.65;59.77;100853.33;479727;114;382007;-71
2021/04/18 00:57:06;;;;;;;;;16.60;16.00;;;;;10.66;59.19;100857.69;479799;114;381072;-74
2021/04/18 00:58:11;;;;;;;;;15.60;14.60;;;;;10.66;59.24;100852.38;470657;115;388075;-76
2021/04/18 00:59:16;;;;;;;;;15.10;13.60;;;;;10.69;58.63;100855.63;473157;115;382051;-75
2021/04/18 01:00:24;;;;;;;;;22.60;17.90;;;;;10.71;58.25;100853.73;479195;114;382915;-74
2021/04/18 01:01:28;;;;;;;;;17.70;17.00;;;;;10.73;58.80;100850.95;479254;114;381235;-75
2021/04/18 01:02:32;;;;;;;;;20.00;18.30;;;;;10.75;59.03;100843.73;479617;114;381091;-74
2021/04/18 01:03:36;;;;;;;;;16.90;16.90;;;;;10.76;58.54;100848.06;479831;114;382555;-72
2021/04/18 01:04:40;;;;;;;;;23.10;18.70;;;;;10.75;58.48;100851.70;481152;112;383588;-76
2021/04/18 01:05:44;;;;;;;;;16.50;15.10;;;;;10.76;58.23;100850.72;484507;112;388730;-76
2021/04/18 01:06:49;;;;;;;;;17.10;16.30;;;;;10.76;58.23;100850.72;486064;112;381449;-75
2021/04/18 01:07:53;;;;;;;;;16.80;15.80;;;;;10.74;58.15;100856.17;484492;112;381982;-76
2021/04/18 01:08:57;;;;;;;;;11.90;10.80;;;;;10.74;58.15;100856.17;486677;112;376888;-76
2021/04/18 01:10:01;;;;;;;;;10.90;9.60;;;;;10.69;57.88;100852.16;484577;112;378093;-76
2021/04/18 01:11:05;;;;;;;;;16.00;13.10;;;;;10.66;58.57;100857.69;486662;112;380629;-76
2021/04/18 01:12:10;;;;;;;;;17.70;16.30;;;;;10.66;58.57;100857.69;484165;112;386155;-74
2021/04/18 01:13:14;;;;;;;;;19.80;16.40;;;;;10.65;58.08;100850.66;486257;112;383307;-72
2021/04/18 01:14:18;;;;;;;;;18.00;17.20;;;;;10.65;58.08;100850.66;484434;112;382089;-72
2021/04/18 01:15:22;;;;;;;;;17.50;15.70;;;;;10.67;58.65;100846.92;486509;112;382609;-72
2021/04/18 01:16:27;;;;;;;;;18.10;15.50;;;;;10.67;58.65;100846.92;483962;112;382687;-72
2021/04/18 01:17:31;;;;;;;;;19.20;17.80;;;;;10.67;58.82;100846.07;486558;112;382900;-73
2021/04/18 01:18:35;;;;;;;;;16.70;15.40;;;;;10.65;58.72;100848.86;484508;112;381427;-73
2021/04/18 01:19:39;;;;;;;;;15.80;15.40;;;;;10.65;59.26;100848.00;486582;112;380628;-73
2021/04/18 01:20:44;;;;;;;;;21.10;19.10;;;;;10.66;58.69;100841.73;483798;112;388888;-74
2021/04/18 01:22:06;;;;;;;;;19.30;18.10;;;;;10.66;58.69;100841.73;485997;112;382091;-73
2021/04/18 01:23:12;;;;;;;;;18.20;17.10;;;;;10.64;58.54;100839.17;484684;112;387701;-70
2021/04/18 01:24:34;;;;;;;;;17.40;16.80;;;;;10.64;58.58;100847.15;483959;112;380860;-68
2021/04/18 01:25:56;;;;;;;;;17.70;16.70;;;;;10.62;58.87;100833.13;486024;112;381231;-70
2021/04/18 01:27:04;;;;;;;;;15.60;14.30;;;;;10.62;58.87;100833.13;485800;112;381902;-71
2021/04/18 01:28:08;;;;;;;;;17.55;15.09;;;;;10.59;58.78;100839.48;484004;112;387628;-70
2021/04/18 01:29:12;;;;;;;;;18.30;17.10;;;;;10.58;58.64;100834.30;486513;112;381647;-69
2021/04/18 01:30:18;;;;;;;;;16.20;15.20;;;;;10.61;58.45;100842.05;484151;112;380969;-69
2021/04/18 01:31:22;;;;;;;;;18.60;16.40;;;;;10.61;58.59;100832.27;485535;112;382235;-70
2021/04/18 01:32:25;;;;;;;;;15.80;15.60;;;;;10.62;58.48;100833.94;484397;112;387395;-70
2021/04/18 01:33:29;;;;;;;;;16.20;15.20;;;;;10.62;58.48;100830.46;484438;112;380736;-70
2021/04/18 01:34:33;;;;;;;;;18.00;16.40;;;;;10.62;58.78;100836.61;486528;112;381670;-72
2021/04/18 01:35:37;;;;;;;;;15.50;15.30;;;;;10.63;58.98;100846.30;486586;112;379584;-71
2021/04/18 01:36:43;;;;;;;;;18.10;15.60;;;;;10.63;58.98;100846.30;484396;112;386426;-70
2021/04/18 01:37:47;;;;;;;;;13.60;12.80;;;;;10.61;58.78;100826.95;486064;112;378974;-72
2021/04/18 01:38:50;;;;;;;;;16.50;15.80;;;;;10.61;58.78;100826.95;484502;112;381299;-72
2021/04/18 01:39:54;;;;;;;;;16.20;15.80;;;;;10.63;58.49;100830.33;486056;112;381329;-72
2021/04/18 01:40:59;;;;;;;;;19.30;17.80;;;;;10.62;58.78;100833.94;484182;112;381650;-71
2021/04/18 01:42:03;;;;;;;;;14.90;12.50;;;;;9.87;58.99;100711.78;486349;112;378620;-71
2021/04/18 01:43:07;;;;;;;;;14.00;11.40;;;;;9.87;58.99;100711.78;483740;112;386926;-72
2021/04/18 01:44:12;;;;;;;;;17.30;15.80;;;;;10.59;58.35;100828.02;486553;112;382444;-71
2021/04/18 01:45:18;;;;;;;;;20.10;18.00;;;;;10.59;58.35;100828.02;483941;112;382388;-71
2021/04/18 01:46:24;;;;;;;;;17.60;17.40;;;;;10.61;58.53;100832.27;483908;112;381452;-72
2021/04/18 01:47:28;;;;;;;;;17.70;17.50;;;;;10.61;58.98;100832.27;476800;114;381577;-70
2021/04/18 01:48:34;;;;;;;;;26.00;19.50;;;;;10.59;58.83;100831.50;477145;114;390572;-74
2021/04/18 01:49:37;;;;;;;;;19.80;18.80;;;;;10.59;58.83;100831.50;485947;112;382204;-73
2021/04/18 01:50:42;;;;;;;;;19.80;18.70;;;;;10.54;59.36;100840.78;476755;114;388189;-72
2021/04/18 01:51:46;;;;;;;;;19.40;16.70;;;;;10.54;59.36;100840.78;477059;112;380537;-71
2021/04/18 01:52:50;;;;;;;;;24.70;21.50;;;;;10.50;61.00;100834.83;484087;112;391621;-71
2021/04/18 01:53:56;;;;;;;;;22.80;19.10;;;;;10.47;60.02;100843.03;486174;112;383398;-71
2021/04/18 01:55:01;;;;;;;;;24.10;21.00;;;;;10.45;60.29;100839.64;484188;112;383731;-72
2021/04/18 01:56:06;;;;;;;;;15.70;11.70;;;;;10.45;60.29;100839.64;485963;112;380006;-72
2021/04/18 01:57:11;;;;;;;;;23.00;19.90;;;;;10.42;60.02;100842.52;483841;112;388973;-71
2021/04/18 01:58:17;;;;;;;;;21.30;20.20;;;;;10.41;59.88;100839.95;485346;112;382879;-72
2021/04/18 01:59:25;;;;;;;;;20.10;18.60;;;;;10.38;60.59;100835.70;484082;112;383649;-71
2021/04/18 02:00:38;;;;;;;;;21.80;20.20;;;;;10.38;60.59;100835.70;475319;112;384337;-73
2021/04/18 02:01:42;;;;;;;;;22.00;20.10;;;;;10.36;60.58;100834.98;484012;112;389656;-72
2021/04/18 02:02:47;;;;;;;;;22.40;18.10;;;;;10.37;60.14;100838.49;476876;114;383207;-71
2021/04/18 02:03:53;;;;;;;;;17.70;15.40;;;;;10.37;60.14;100838.49;476674;114;380985;-72
2021/04/18 02:04:57;;;;;;;;;23.80;18.90;;;;;10.35;59.93;100841.25;486272;112;383398;-73
2021/04/18 02:06:01;;;;;;;;;20.00;18.40;;;;;10.33;59.36;100839.66;479803;114;381253;-74
2021/04/18 02:07:07;;;;;;;;;26.70;19.00;;;;;10.32;59.73;100836.14;470494;115;384520;-74
2021/04/18 02:08:11;;;;;;;;;21.30;20.30;;;;;10.29;60.16;100839.02;471295;116;382519;-72
2021/04/18 02:09:16;;;;;;;;;19.40;17.50;;;;;10.26;60.22;100841.05;479507;114;382216;-74
2021/04/18 02:10:21;;;;;;;;;19.40;15.30;;;;;10.24;60.45;100832.34;479308;114;382273;-74
2021/04/18 02:11:25;;;;;;;;;19.80;18.80;;;;;10.25;60.67;100839.33;479785;114;382598;-72
2021/04/18 02:12:31;;;;;;;;;23.30;19.70;;;;;10.22;60.73;100828.91;478778;114;383558;-71
2021/04/18 02:13:35;;;;;;;;;24.50;21.00;;;;;10.20;61.91;100831.70;479771;114;383520;-70
2021/04/18 02:14:40;;;;;;;;;23.30;20.30;;;;;10.20;61.91;100831.70;477744;114;389448;-71
2021/04/18 02:15:46;;;;;;;;;17.50;16.70;;;;;10.18;62.54;100843.41;478940;114;380653;-70
2021/04/18 02:16:51;;;;;;;;;20.10;19.10;;;;;10.18;61.97;100844.22;479502;114;383368;-70
2021/04/18 02:17:55;;;;;;;;;22.10;20.30;;;;;10.18;61.61;100838.91;470837;116;383160;-71
2021/04/18 02:19:00;;;;;;;;;21.80;19.90;;;;;10.14;61.24;100831.27;473086;115;388042;-71
2021/04/18 02:20:06;;;;;;;;;24.90;21.40;;;;;10.11;61.35;100840.28;480992;113;384268;-70
2021/04/18 02:21:10;;;;;;;;;21.60;21.60;;;;;10.09;61.65;100840.37;478759;114;382692;-70
2021/04/18 02:22:14;;;;;;;;;24.30;22.10;;;;;10.09;61.65;100840.37;479385;114;390692;-72
2021/04/18 02:23:20;;;;;;;;;22.80;20.10;;;;;10.08;62.25;100836.01;479127;114;383338;-69
2021/04/18 02:24:25;;;;;;;;;21.70;20.10;;;;;10.07;61.74;100841.45;479445;114;382008;-70
2021/04/18 02:25:29;;;;;;;;;25.90;22.80;;;;;10.02;62.20;100840.90;479497;114;384187;-69
2021/04/18 02:26:34;;;;;;;;;28.00;25.60;;;;;10.02;62.20;100840.90;479147;114;390119;-70
2021/04/18 02:27:38;;;;;;;;;41.60;33.20;;;;;9.95;61.96;100832.53;479693;114;387398;-70
2021/04/18 02:28:45;;;;;;;;;51.40;40.80;;;;;9.95;61.96;100832.53;478466;114;386797;-70
2021/04/18 02:29:49;;;;;;;;;33.70;33.10;;;;;9.90;62.59;100837.30;479451;114;384980;-70
2021/04/18 02:30:55;;;;;;;;;67.50;47.10;;;;;9.90;61.92;100834.64;478790;114;396443;-74
2021/04/18 02:32:01;;;;;;;;;71.90;51.40;;;;;9.92;62.15;100834.55;478431;114;389737;-74
2021/04/18 02:33:06;;;;;;;;;69.30;51.20;;;;;9.92;62.73;100839.86;479367;114;389467;-73
2021/04/18 02:34:10;;;;;;;;;72.80;53.90;;;;;9.92;62.73;100839.86;479287;114;389263;-73
2021/04/18 02:35:16;;;;;;;;;64.50;49.80;;;;;9.92;62.67;100839.86;479602;114;393900;-74
2021/04/18 02:36:22;;;;;;;;;65.40;49.30;;;;;9.93;62.73;100849.51;479280;114;387123;-73
2021/04/18 02:37:26;;;;;;;;;68.50;52.00;;;;;9.93;62.73;100849.51;479634;114;387935;-74
2021/04/18 02:38:30;;;;;;;;;65.20;49.50;;;;;9.87;63.38;100836.65;479183;114;386093;-75
2021/04/18 02:39:34;;;;;;;;;64.70;51.10;;;;;9.87;63.29;100839.30;479266;114;394377;-73
2021/04/18 02:40:39;;;;;;;;;60.00;45.70;;;;;9.86;63.42;100832.31;479466;114;386835;-74
2021/04/18 02:41:45;;;;;;;;;58.80;44.70;;;;;9.86;63.42;100832.31;479341;114;387422;-73
2021/04/18 02:42:49;;;;;;;;;61.10;46.10;;;;;9.84;63.30;100835.06;479358;113;393937;-74
2021/04/18 02:43:54;;;;;;;;;58.80;44.70;;;;;9.84;62.67;100839.52;479422;114;387387;-75
2021/04/18 02:44:58;;;;;;;;;46.50;36.00;;;;;9.80;62.77;100830.91;479641;114;386784;-72
2021/04/18 02:46:04;;;;;;;;;60.40;47.70;;;;;9.80;62.77;100830.91;478746;114;387545;-71
2021/04/18 02:47:09;;;;;;;;;59.70;47.20;;;;;9.78;62.63;100829.31;479420;114;386772;-73
2021/04/18 02:48:14;;;;;;;;;63.50;47.90;;;;;9.78;62.63;100829.31;478509;114;387101;-74
2021/04/18 02:49:19;;;;;;;;;61.30;48.10;;;;;9.72;63.19;100824.42;470760;115;387283;-73
2021/04/18 02:50:23;;;;;;;;;57.50;45.20;;;;;9.72;63.19;100824.42;473056;115;392164;-73
2021/04/18 02:51:27;;;;;;;;;57.20;44.80;;;;;9.70;62.52;100832.48;472661;115;393519;-72
2021/04/18 02:52:31;;;;;;;;;61.30;49.20;;;;;9.70;62.52;100832.48;471344;116;387862;-71
2021/04/18 02:53:35;;;;;;;;;62.10;45.60;;;;;9.73;63.03;100831.45;479683;114;387960;-72
2021/04/18 02:54:39;;;;;;;;;57.00;43.20;;;;;9.73;63.03;100831.45;479694;114;384916;-73
2021/04/18 02:55:44;;;;;;;;;55.10;44.80;;;;;9.71;63.87;100836.00;479423;114;385035;-73
2021/04/18 02:56:52;;;;;;;;;57.70;44.90;;;;;9.70;63.92;100835.14;477596;114;385999;-73
2021/04/18 02:57:57;;;;;;;;;58.10;43.00;;;;;9.69;63.56;100836.12;470773;115;385902;-73
2021/04/18 02:59:02;;;;;;;;;55.80;43.00;;;;;9.69;64.37;100829.95;470655;116;388044;-73
2021/04/18 03:00:09;;;;;;;;;55.40;41.40;;;;;9.69;64.37;100829.95;470279;116;387064;-72
2021/04/18 03:01:14;;;;;;;;;43.20;37.20;;;;;9.67;64.21;100829.22;473261;113;386627;-74
2021/04/18 03:02:18;;;;;;;;;52.30;42.70;;;;;9.71;64.46;100830.69;479711;114;385723;-73
2021/04/18 03:03:23;;;;;;;;;18.90;13.40;;;;;9.71;64.46;100830.69;479528;114;387295;-72
2021/04/18 03:04:28;;;;;;;;;48.80;40.40;;;;;9.71;64.35;100822.72;479445;114;386330;-71
2021/04/18 03:05:32;;;;;;;;;52.80;39.90;;;;;9.70;63.62;100826.34;479637;114;387708;-73
2021/04/18 03:06:45;;;;;;;;;47.70;38.50;;;;;9.67;64.26;100831.88;479110;113;387383;-71
2021/04/18 03:07:49;;;;;;;;;50.90;41.60;;;;;9.67;64.98;100831.88;479646;114;390848;-72
2021/04/18 03:08:53;;;;;;;;;48.80;38.50;;;;;9.65;64.73;100831.96;479681;114;387095;-70
2021/04/18 03:09:57;;;;;;;;;39.20;37.30;;;;;9.68;64.15;100833.55;479089;114;384790;-70
2021/04/18 03:11:01;;;;;;;;;40.70;35.50;;;;;9.68;64.15;100833.55;479672;114;386629;-71
2021/04/18 03:12:07;;;;;;;;;45.10;38.10;;;;;9.69;64.95;100833.46;479733;114;385798;-70
2021/04/18 03:13:12;;;;;;;;;44.50;38.90;;;;;9.69;65.05;100835.27;478946;114;385994;-71
2021/04/18 03:14:17;;;;;;;;;49.00;39.40;;;;;9.71;65.17;100836.00;479062;114;394161;-72
2021/04/18 03:15:21;;;;;;;;;49.20;41.20;;;;;9.76;64.26;100831.23;479700;114;385540;-72
2021/04/18 03:16:27;;;;;;;;;47.90;39.70;;;;;9.76;64.26;100831.23;478674;114;386683;-72
2021/04/18 03:17:31;;;;;;;;;49.50;40.60;;;;;9.75;64.70;100840.16;479675;114;385270;-72
2021/04/18 03:18:37;;;;;;;;;48.30;38.80;;;;;9.74;64.19;100841.09;478574;114;387540;-72
2021/04/18 03:19:41;;;;;;;;;44.10;34.40;;;;;9.74;64.19;100841.09;479445;114;387971;-72
2021/04/18 03:20:51;;;;;;;;;43.20;37.60;;;;;9.73;63.96;100842.08;479123;114;385378;-71
2021/04/18 03:21:55;;;;;;;;;52.20;40.10;;;;;9.71;65.04;100834.20;479075;114;387832;-71
2021/04/18 03:22:59;;;;;;;;;47.80;38.90;;;;;9.71;65.97;100838.66;479455;114;386143;-71
2021/04/18 03:24:06;;;;;;;;;50.10;40.10;;;;;9.71;65.97;100838.66;479450;114;387864;-71
2021/04/18 03:25:12;;;;;;;;;49.50;36.90;;;;;9.70;65.41;100839.63;479095;114;385928;-70
2021/04/18 03:26:18;;;;;;;;;43.50;37.10;;;;;9.71;64.93;100839.51;479170;114;385800;-71
2021/04/18 03:27:22;;;;;;;;;40.00;32.00;;;;;9.69;65.36;100840.58;479404;114;385139;-71
2021/04/18 03:28:28;;;;;;;;;46.80;38.90;;;;;9.68;65.30;100844.17;478512;114;386393;-71
2021/04/18 03:29:33;;;;;;;;;44.90;38.00;;;;;9.68;65.30;100844.17;479395;114;392120;-70
2021/04/18 03:30:38;;;;;;;;;52.90;40.40;;;;;9.68;65.26;100846.83;478899;114;386658;-69
2021/04/18 03:31:43;;;;;;;;;43.30;38.20;;;;;9.69;66.09;100845.88;470624;115;385849;-70
2021/04/18 03:32:48;;;;;;;;;47.30;38.70;;;;;9.76;65.27;100847.17;473083;115;386583;-71
2021/04/18 03:33:53;;;;;;;;;41.60;37.50;;;;;9.76;65.27;100847.17;479448;114;385621;-70
2021/04/18 03:34:57;;;;;;;;;48.00;38.90;;;;;9.75;64.98;100848.98;479044;114;385866;-70
2021/04/18 03:36:01;;;;;;;;;42.50;37.90;;;;;9.73;65.22;100848.21;479085;114;385985;-70
2021/04/18 03:37:07;;;;;;;;;56.20;39.70;;;;;9.73;65.22;100848.21;479113;114;387718;-70
2021/04/18 03:38:12;;;;;;;;;41.90;35.80;;;;;9.72;65.21;100848.33;479492;114;386436;-72
2021/04/18 03:39:17;;;;;;;;;44.50;36.20;;;;;9.72;65.21;100848.33;479198;114;384631;-72
2021/04/18 03:40:24;;;;;;;;;46.60;39.60;;;;;9.75;65.92;100845.47;479352;113;386789;-71
2021/04/18 03:41:28;;;;;;;;;48.00;39.10;;;;;9.75;65.92;100845.47;479456;114;385114;-71
2021/04/18 03:42:32;;;;;;;;;54.00;43.30;;;;;9.75;66.39;100842.81;479715;114;385896;-71
2021/04/18 03:43:36;;;;;;;;;51.40;41.90;;;;;9.75;66.39;100842.81;470376;115;385511;-70
2021/04/18 03:44:41;;;;;;;;;46.60;38.40;;;;;9.75;66.41;100845.47;473102;115;385600;-70
2021/04/18 03:45:45;;;;;;;;;54.10;42.20;;;;;9.75;66.41;100845.47;479397;114;385896;-68
2021/04/18 03:46:49;;;;;;;;;51.50;41.50;;;;;9.74;67.40;100843.75;479426;114;388391;-70
2021/04/18 03:47:55;;;;;;;;;53.10;42.90;;;;;9.72;68.01;100846.53;478250;114;384600;-71
2021/04/18 03:49:02;;;;;;;;;55.60;42.20;;;;;9.72;68.01;100846.53;479489;114;385677;-71
2021/04/18 03:50:08;;;;;;;;;53.40;42.80;;;;;9.72;67.79;100841.22;479196;113;385390;-71
2021/04/18 03:51:14;;;;;;;;;55.30;43.90;;;;;9.73;67.39;100844.73;466748;114;385538;-70
2021/04/18 03:52:23;;;;;;;;;60.70;45.90;;;;;9.74;67.23;100841.09;479045;114;387107;-71
2021/04/18 03:53:27;;;;;;;;;56.50;43.30;;;;;9.73;67.46;100842.90;470722;115;385218;-71
2021/04/18 03:54:33;;;;;;;;;59.30;47.20;;;;;9.73;67.46;100842.90;472969;115;391162;-70
2021/04/18 03:55:37;;;;;;;;;57.50;46.70;;;;;9.70;67.45;100850.25;479397;114;390659;-70
2021/04/18 03:56:42;;;;;;;;;61.50;47.40;;;;;9.70;67.45;100850.25;479371;114;387634;-70
2021/04/18 03:57:46;;;;;;;;;56.50;44.50;;;;;9.68;67.39;100854.80;479354;114;394017;-71
2021/04/18 03:58:50;;;;;;;;;60.10;47.00;;;;;9.68;67.39;100854.80;479744;114;385541;-70
2021/04/18 03:59:56;;;;;;;;;59.10;47.40;;;;;9.68;67.79;100855.66;479292;114;386519;-72
2021/04/18 04:01:00;;;;;;;;;61.00;47.30;;;;;9.68;67.79;100855.66;479686;114;387638;-71
2021/04/18 04:02:06;;;;;;;;;62.30;48.90;;;;;9.63;68.64;100855.13;479425;114;386659;-72
2021/04/18 04:03:11;;;;;;;;;59.20;46.30;;;;;9.63;68.64;100855.13;479606;114;386857;-71
2021/04/18 04:04:17;;;;;;;;;22.60;17.80;;;;;9.61;69.03;100848.19;479484;114;380382;-70
2021/04/18 04:05:21;;;;;;;;;59.10;47.10;;;;;9.55;69.13;100844.16;479438;114;394087;-71
2021/04/18 04:06:26;;;;;;;;;63.50;47.90;;;;;9.55;69.13;100844.16;481059;112;387570;-71
2021/04/18 04:07:32;;;;;;;;;56.90;45.80;;;;;9.48;69.56;100842.86;483977;112;385995;-71
2021/04/18 04:08:36;;;;;;;;;53.60;42.50;;;;;9.47;69.86;100850.00;475900;114;386268;-72
2021/04/18 04:09:40;;;;;;;;;59.50;46.50;;;;;9.47;69.86;100850.00;478178;114;395995;-71
2021/04/18 04:10:47;;;;;;;;;57.70;46.60;;;;;9.47;69.96;100847.34;485136;112;385507;-72
2021/04/18 04:11:52;;;;;;;;;61.70;48.00;;;;;9.48;69.98;100850.82;485106;112;387724;-71
2021/04/18 04:12:58;;;;;;;;;59.60;47.20;;;;;9.44;70.03;100847.55;484859;112;386850;-72
2021/04/18 04:14:02;;;;;;;;;55.50;45.50;;;;;9.44;70.03;100847.55;485426;112;385398;-72
2021/04/18 04:15:08;;;;;;;;;60.90;47.10;;;;;9.45;71.04;100857.19;484532;112;386480;-71
2021/04/18 04:16:15;;;;;;;;;58.50;46.80;;;;;9.46;70.51;100850.09;484822;112;393612;-72
2021/04/18 04:17:19;;;;;;;;;61.70;47.70;;;;;9.46;70.51;100850.09;485232;112;386773;-72
2021/04/18 04:18:36;;;;;;;;;56.90;43.90;;;;;9.49;70.46;100849.88;483800;112;386524;-72
2021/04/18 04:19:59;;;;;;;;;58.70;46.00;;;;;9.50;70.02;100846.28;485138;112;386849;-71
2021/04/18 04:21:05;;;;;;;;;58.70;45.60;;;;;9.50;70.02;100846.28;468397;112;385638;-73
2021/04/18 04:22:11;;;;;;;;;55.80;45.10;;;;;9.52;69.35;100847.02;483981;112;385202;-71
2021/04/18 04:23:25;;;;;;;;;59.60;46.50;;;;;9.52;69.35;100847.02;485166;112;392099;-71
2021/04/18 04:24:29;;;;;;;;;56.30;46.40;;;;;9.54;69.06;100847.75;485420;112;385294;-72
2021/04/18 04:25:33;;;;;;;;;56.30;44.50;;;;;9.57;68.92;100845.74;485439;112;384542;-71
2021/04/18 04:26:38;;;;;;;;;55.90;43.10;;;;;9.62;69.06;100849.91;485214;112;383902;-71
2021/04/18 04:27:43;;;;;;;;;57.50;46.20;;;;;9.66;69.30;100846.09;485439;112;386515;-71
2021/04/18 04:28:47;;;;;;;;;51.10;44.50;;;;;9.69;69.88;100851.20;485237;112;384696;-71
2021/04/18 04:29:51;;;;;;;;;59.70;46.00;;;;;9.69;69.88;100851.20;485394;112;393294;-71
2021/04/18 04:30:54;;;;;;;;;58.00;46.80;;;;;9.70;69.99;100843.11;485436;112;385792;-71
2021/04/18 04:31:58;;;;;;;;;55.90;44.20;;;;;9.74;67.89;100839.30;485425;112;385134;-71
2021/04/18 04:33:02;;;;;;;;;56.70;46.50;;;;;9.74;67.89;100839.30;484916;112;393632;-70
2021/04/18 04:34:06;;;;;;;;;56.80;44.70;;;;;9.75;68.42;100846.32;485446;112;385920;-70
2021/04/18 04:35:12;;;;;;;;;55.90;43.80;;;;;9.78;69.70;100840.80;485508;112;385616;-70
2021/04/18 04:36:18;;;;;;;;;55.00;44.50;;;;;9.78;69.70;100840.80;485037;112;384270;-70
2021/04/18 04:37:22;;;;;;;;;59.30;46.50;;;;;9.82;69.44;100838.78;485105;112;387385;-69
2021/04/18 04:38:26;;;;;;;;;57.00;44.20;;;;;9.82;69.32;100846.75;485467;112;387021;-70
2021/04/18 04:39:30;;;;;;;;;60.50;46.70;;;;;9.83;69.54;100849.29;485475;112;387187;-69
2021/04/18 04:40:34;;;;;;;;;52.90;43.30;;;;;9.91;69.21;100843.46;485460;112;385763;-71
2021/04/18 04:41:38;;;;;;;;;56.90;45.70;;;;;9.91;69.21;100843.46;485471;112;385284;-70
2021/04/18 04:42:42;;;;;;;;;57.90;44.90;;;;;9.97;69.19;100840.37;484990;112;385994;-70
2021/04/18 04:43:46;;;;;;;;;43.10;36.80;;;;;9.99;68.53;100843.77;484981;112;386124;-71
2021/04/18 04:44:49;;;;;;;;;50.10;41.20;;;;;9.99;68.53;100843.77;484652;112;385393;-71
2021/04/18 04:45:53;;;;;;;;;61.10;47.50;;;;;9.99;69.08;100836.66;485478;112;386670;-70
2021/04/18 04:46:57;;;;;;;;;56.60;44.20;;;;;10.00;68.68;100837.51;485109;112;384691;-70
2021/04/18 04:48:01;;;;;;;;;56.40;46.80;;;;;10.02;68.58;100838.24;485512;112;386109;-72
2021/04/18 04:49:05;;;;;;;;;58.70;46.60;;;;;10.06;68.18;100837.08;485358;112;394325;-71
2021/04/18 04:50:13;;;;;;;;;46.80;40.00;;;;;10.06;68.18;100837.08;485090;112;393254;-71
2021/04/18 04:51:17;;;;;;;;;57.40;45.30;;;;;10.08;68.98;100838.67;485130;112;386075;-70
2021/04/18 04:52:21;;;;;;;;;60.10;47.60;;;;;10.10;68.41;100830.60;485429;112;385330;-69
2021/04/18 04:53:24;;;;;;;;;54.70;44.60;;;;;10.12;69.33;100828.67;484976;112;385840;-74